Time;durP1;ratioP1;P1;durP2;ratioP2;P2;SDS_P1;SDS_P2;PMS_P1;PMS_P2;Temp;Humidity;BMP_temperature;BMP_pressure;BME280_temperature;BME280_humidity;BME280_pressure;Samples;Min_cycle;Max_cycle;Signal;HPM_P1;HPM_P2
2023/07/06 00:01:45;;;;;;;50.85;45.42;;;19.60;99.90;;;;;;4822346;29;20530;-77
2023/07/06 00:04:14;;;;;;;52.38;46.97;;;19.50;99.90;;;;;;4826587;29;20051;-75
2023/07/06 00:06:41;;;;;;;51.42;46.20;;;19.50;99.90;;;;;;4818004;29;20046;-75
2023/07/06 00:09:09;;;;;;;54.88;49.55;;;19.40;99.90;;;;;;4828534;29;20050;-77
2023/07/06 00:11:38;;;;;;;55.22;49.90;;;19.40;99.90;;;;;;4832573;29;20110;-76
2023/07/06 00:14:08;;;;;;;55.28;49.42;;;19.40;99.90;;;;;;4832697;29;20103;-78
2023/07/06 00:16:41;;;;;;;54.65;49.33;;;19.40;99.90;;;;;;4823700;29;20495;-75
2023/07/06 00:19:08;;;;;;;54.88;49.45;;;19.30;99.90;;;;;;4822211;29;20047;-76
2023/07/06 00:21:35;;;;;;;52.03;46.70;;;19.30;99.90;;;;;;4821804;29;20262;-75
2023/07/06 00:24:03;;;;;;;50.10;45.28;;;19.40;99.90;;;;;;4821943;29;20046;-76
2023/07/06 00:26:32;;;;;;;49.20;44.40;;;19.30;99.90;;;;;;4821695;29;20042;-76
2023/07/06 00:28:59;;;;;;;51.80;46.60;;;19.20;99.90;;;;;;4828897;29;20110;-76
2023/07/06 00:31:40;;;;;;;51.60;46.45;;;19.20;99.90;;;;;;4823297;29;20081;-76
2023/07/06 00:34:09;;;;;;;51.97;46.80;;;19.20;99.90;;;;;;4839603;29;20510;-76
2023/07/06 00:36:37;;;;;;;51.50;46.50;;;19.20;99.90;;;;;;4839832;29;20384;-76
2023/07/06 00:39:06;;;;;;;52.95;47.80;;;19.20;99.90;;;;;;4824286;29;20447;-77
2023/07/06 00:41:34;;;;;;;51.10;45.88;;;19.20;99.90;;;;;;4839516;29;20069;-75
2023/07/06 00:44:01;;;;;;;51.00;45.67;;;19.20;99.90;;;;;;4831220;29;20397;-76
2023/07/06 00:46:36;;;;;;;50.08;44.70;;;19.30;99.90;;;;;;4821058;29;20051;-75
2023/07/06 00:49:05;;;;;;;48.92;44.20;;;19.40;99.90;;;;;;4805718;29;20094;-77
2023/07/06 00:51:40;;;;;;;50.67;45.80;;;19.30;99.90;;;;;;4825340;29;20053;-77
2023/07/06 00:54:12;;;;;;;51.25;46.17;;;19.20;99.90;;;;;;4812266;29;20499;-76
2023/07/06 00:56:44;;;;;;;50.97;46.17;;;19.10;99.90;;;;;;4811458;29;20055;-76
2023/07/06 00:59:16;;;;;;;50.97;45.95;;;19.00;99.90;;;;;;4828302;29;20050;-74
2023/07/06 01:01:46;;;;;;;51.42;46.13;;;19.10;99.90;;;;;;4812836;29;20064;-77
2023/07/06 01:04:17;;;;;;;48.42;43.70;;;19.20;99.90;;;;;;4830268;29;20055;-75
2023/07/06 01:06:49;;;;;;;49.47;44.45;;;19.20;99.90;;;;;;4845554;29;20083;-74
2023/07/06 01:09:17;;;;;;;51.10;45.90;;;19.10;99.90;;;;;;4848568;29;20047;-75
2023/07/06 01:11:45;;;;;;;51.45;46.35;;;19.10;99.90;;;;;;4842044;29;20050;-75
2023/07/06 01:14:15;;;;;;;50.17;45.33;;;19.10;99.90;;;;;;4819171;29;20128;-76
2023/07/06 01:16:46;;;;;;;50.83;45.47;;;19.10;99.90;;;;;;4818349;29;20058;-77
2023/07/06 01:19:35;;;;;;;50.75;45.40;;;19.10;99.90;;;;;;4828830;29;20116;-75
2023/07/06 01:22:17;;;;;;;48.97;43.92;;;18.90;99.90;;;;;;4812019;29;20071;-74
2023/07/06 01:25:04;;;;;;;48.40;43.75;;;18.80;99.90;;;;;;4828416;29;20065;-74
2023/07/06 01:27:59;;;;;;;51.45;46.33;;;18.80;99.90;;;;;;4828525;29;20054;-76
2023/07/06 01:31:23;;;;;;;48.03;42.97;;;18.70;99.90;;;;;;4845870;29;20494;-75
2023/07/06 01:33:58;;;;;;;46.97;42.50;;;18.70;99.90;;;;;;4789544;29;20108;-75
2023/07/06 01:36:34;;;;;;;52.33;47.22;;;18.60;99.90;;;;;;4789290;29;20047;-75
2023/07/06 01:39:12;;;;;;;;;;;18.60;99.90;;;;;;4796886;29;20195;-76
2023/07/06 01:41:40;;;;;;;50.65;45.58;;;18.70;99.90;;;;;;4777668;30;19926;-75
2023/07/06 01:44:11;;;;;;;51.25;46.15;;;18.70;99.90;;;;;;4781579;29;20374;-76
2023/07/06 01:46:43;;;;;;;48.03;42.95;;;18.80;99.90;;;;;;4787574;30;20071;-78
2023/07/06 01:49:12;;;;;;;48.95;43.88;;;18.70;99.90;;;;;;4771491;30;20136;-78
2023/07/06 01:51:49;;;;;;;50.03;44.75;;;18.60;99.90;;;;;;4790238;29;20056;-77
2023/07/06 01:54:22;;;;;;;51.78;46.13;;;18.50;99.90;;;;;;4828318;29;20110;-77
2023/07/06 01:56:58;;;;;;;49.90;45.00;;;18.50;99.90;;;;;;4811272;29;20498;-76
2023/07/06 01:59:30;;;;;;;50.17;45.00;;;18.40;99.90;;;;;;4812830;29;20054;-78
2023/07/06 02:02:01;;;;;;;49.50;44.33;;;18.40;99.90;;;;;;4827721;29;20042;-76
2023/07/06 02:04:32;;;;;;;48.95;43.88;;;18.50;99.90;;;;;;4826169;29;20050;-76
2023/07/06 02:07:02;;;;;;;49.17;43.97;;;18.60;99.90;;;;;;4807954;29;20050;-78
2023/07/06 02:09:29;;;;;;;47.97;43.17;;;18.60;99.90;;;;;;4824179;29;20051;-78
2023/07/06 02:11:57;;;;;;;47.05;42.40;;;18.70;99.90;;;;;;4825630;29;20142;-77
2023/07/06 02:14:25;;;;;;;46.58;41.88;;;18.70;99.90;;;;;;4825955;29;20050;-76
2023/07/06 02:16:54;;;;;;;45.47;40.78;;;18.70;99.90;;;;;;4831461;29;20060;-74
2023/07/06 02:19:22;;;;;;;42.70;38.30;;;18.70;99.90;;;;;;4810550;29;20050;-76
2023/07/06 02:21:51;;;;;;;41.45;37.17;;;18.80;99.90;;;;;;4824928;29;20046;-77
2023/07/06 02:24:19;;;;;;;42.13;38.05;;;18.80;99.90;;;;;;4824931;29;20503;-75
2023/07/06 02:26:48;;;;;;;40.53;36.22;;;18.70;99.90;;;;;;4824224;29;20141;-77
2023/07/06 02:29:16;;;;;;;43.25;38.83;;;18.70;99.90;;;;;;4848889;29;20042;-76
2023/07/06 02:31:46;;;;;;;43.30;38.90;;;18.80;99.90;;;;;;4837088;29;20057;-77
2023/07/06 02:34:14;;;;;;;42.05;38.00;;;19.00;99.90;;;;;;4845369;29;20211;-76
2023/07/06 02:36:41;;;;;;;43.97;39.50;;;18.90;99.90;;;;;;4827311;29;20050;-76
2023/07/06 02:39:10;;;;;;;44.97;40.53;;;18.80;99.90;;;;;;4826481;29;20457;-77
2023/07/06 02:41:37;;;;;;;45.13;40.35;;;18.80;99.90;;;;;;4842236;29;20062;-75
2023/07/06 02:44:05;;;;;;;41.70;37.70;;;18.70;99.90;;;;;;4814697;29;20138;-75
2023/07/06 02:46:33;;;;;;;43.55;39.22;;;18.70;99.90;;;;;;4792684;29;20090;-76
2023/07/06 02:49:00;;;;;;;45.25;40.60;;;18.70;99.90;;;;;;4791171;29;20054;-74
2023/07/06 02:51:29;;;;;;;42.92;38.60;;;18.70;99.90;;;;;;4807457;29;20104;-75
2023/07/06 02:53:56;;;;;;;44.17;39.72;;;18.60;99.90;;;;;;4810038;29;20046;-74
2023/07/06 02:56:26;;;;;;;43.17;38.80;;;18.60;99.90;;;;;;4806582;29;20096;-76
2023/07/06 02:58:54;;;;;;;45.83;41.05;;;18.60;99.90;;;;;;4807010;29;20085;-75
2023/07/06 03:01:23;;;;;;;45.85;41.25;;;18.50;99.90;;;;;;4808965;29;20046;-76
2023/07/06 03:03:51;;;;;;;46.47;41.53;;;18.50;99.90;;;;;;4809546;29;20149;-75
2023/07/06 03:06:18;;;;;;;43.60;39.58;;;18.50;99.90;;;;;;4824299;29;20042;-75
2023/07/06 03:08:47;;;;;;;44.75;40.15;;;18.50;99.90;;;;;;4822178;29;20042;-76
2023/07/06 03:11:16;;;;;;;44.75;40.47;;;18.50;99.90;;;;;;4823302;29;20483;-78
2023/07/06 03:13:44;;;;;;;47.00;42.42;;;18.50;99.90;;;;;;4824317;29;20122;-74
2023/07/06 03:16:12;;;;;;;43.70;39.50;;;18.50;99.90;;;;;;4822653;29;20466;-76
2023/07/06 03:18:40;;;;;;;43.13;38.83;;;18.50;99.90;;;;;;4810257;29;20714;-75
2023/07/06 03:21:07;;;;;;;45.10;39.50;;;18.50;99.90;;;;;;4812457;29;20046;-77
2023/07/06 03:23:35;;;;;;;45.83;41.25;;;18.50;99.90;;;;;;4813791;29;20107;-75
2023/07/06 03:26:02;;;;;;;45.75;41.13;;;18.50;99.90;;;;;;4825813;29;20038;-77
2023/07/06 03:28:29;;;;;;;44.92;40.33;;;18.50;99.90;;;;;;4829832;29;20050;-75
2023/07/06 03:30:59;;;;;;;47.60;42.80;;;18.40;99.90;;;;;;4835967;29;20098;-77
2023/07/06 03:33:26;;;;;;;45.00;40.55;;;18.50;99.90;;;;;;4847775;29;20046;-75
2023/07/06 03:35:54;;;;;;;45.75;41.15;;;18.50;99.90;;;;;;4827464;29;20138;-75
2023/07/06 03:38:22;;;;;;;45.05;40.30;;;18.60;99.90;;;;;;4843808;29;20525;-76
2023/07/06 03:40:49;;;;;;;44.55;39.85;;;18.80;99.90;;;;;;4850151;29;20083;-75
2023/07/06 03:43:19;;;;;;;46.78;41.88;;;18.80;99.90;;;;;;4857551;29;20372;-75
2023/07/06 03:45:48;;;;;;;44.63;40.05;;;19.00;99.90;;;;;;4819014;29;20047;-75
2023/07/06 03:48:17;;;;;;;41.40;37.40;;;19.10;99.90;;;;;;4811211;29;20050;-76
2023/07/06 03:50:44;;;;;;;42.35;37.95;;;19.20;99.90;;;;;;4823797;29;20038;-76
2023/07/06 03:53:12;;;;;;;44.53;40.13;;;19.20;99.90;;;;;;4825493;29;20058;-74
2023/07/06 03:55:40;;;;;;;41.67;37.28;;;19.20;99.90;;;;;;4829588;29;20069;-76
2023/07/06 03:58:08;;;;;;;41.47;37.40;;;19.30;99.90;;;;;;4832005;29;20070;-75
2023/07/06 04:00:36;;;;;;;42.42;37.35;;;19.30;99.90;;;;;;4828887;29;20065;-76
2023/07/06 04:03:04;;;;;;;37.95;34.15;;;19.50;99.90;;;;;;4808094;29;20050;-76
2023/07/06 04:05:36;;;;;;;37.97;34.08;;;19.80;99.90;;;;;;4824089;29;20042;-77
2023/07/06 04:08:08;;;;;;;35.30;31.67;;;20.10;99.90;;;;;;4823886;29;20046;-77
2023/07/06 04:10:37;;;;;;;34.65;31.17;;;20.50;99.90;;;;;;4827157;29;20050;-75
2023/07/06 04:13:04;;;;;;;34.15;30.65;;;20.80;99.90;;;;;;4831699;29;20050;-74
2023/07/06 04:15:32;;;;;;;34.17;30.60;;;21.00;99.90;;;;;;4831433;29;20046;-76
2023/07/06 04:18:00;;;;;;;34.35;31.05;;;21.30;99.90;;;;;;4825549;29;20092;-76
2023/07/06 04:20:29;;;;;;;33.75;30.60;;;21.50;99.90;;;;;;4806446;29;20115;-76
2023/07/06 04:22:59;;;;;;;35.25;31.48;;;21.90;99.90;;;;;;4823011;29;20096;-77
2023/07/06 04:25:29;;;;;;;31.85;28.67;;;22.40;99.90;;;;;;4822385;29;20070;-76
2023/07/06 04:27:59;;;;;;;31.02;28.10;;;22.80;99.90;;;;;;4821878;29;20061;-77
2023/07/06 04:30:27;;;;;;;30.70;27.70;;;23.10;99.90;;;;;;4841206;29;20077;-77
2023/07/06 04:32:55;;;;;;;29.90;27.20;;;23.50;99.90;;;;;;4843952;29;20042;-74
2023/07/06 04:35:23;;;;;;;29.17;26.15;;;23.90;99.90;;;;;;4843382;29;20130;-74
2023/07/06 04:37:52;;;;;;;28.35;25.65;;;24.20;99.90;;;;;;4842153;29;20361;-76
2023/07/06 04:40:26;;;;;;;28.30;25.30;;;24.60;99.90;;;;;;4842599;29;20046;-74
2023/07/06 04:42:54;;;;;;;28.52;25.73;;;24.90;99.90;;;;;;4824646;29;20050;-75
2023/07/06 04:45:24;;;;;;;28.20;25.35;;;25.00;99.90;;;;;;4807761;29;20051;-76
2023/07/06 04:47:53;;;;;;;28.75;25.85;;;25.00;99.90;;;;;;4823669;29;20157;-76
2023/07/06 04:50:22;;;;;;;28.88;26.17;;;24.90;99.90;;;;;;4824433;29;20052;-77
2023/07/06 04:52:53;;;;;;;31.08;26.17;;;24.80;99.90;;;;;;4830035;29;20057;-76
2023/07/06 04:55:23;;;;;;;29.58;26.77;;;24.10;99.90;;;;;;4832647;29;20121;-76
2023/07/06 04:57:52;;;;;;;30.30;27.30;;;24.30;99.90;;;;;;4826741;29;20077;-75
2023/07/06 05:00:24;;;;;;;28.52;25.60;;;25.00;99.90;;;;;;4823313;29;20072;-75
2023/07/06 05:02:53;;;;;;;29.35;26.45;;;25.70;99.90;;;;;;4822875;29;20049;-76
2023/07/06 05:05:21;;;;;;;28.35;25.48;;;26.40;99.90;;;;;;4823779;29;20046;-76
2023/07/06 05:07:48;;;;;;;29.58;26.42;;;26.80;99.90;;;;;;4824111;29;20043;-74
2023/07/06 05:10:17;;;;;;;33.50;25.52;;;27.10;99.90;;;;;;4833803;29;20034;-76
2023/07/06 05:12:45;;;;;;;27.67;24.83;;;27.50;99.90;;;;;;4842268;29;20068;-72
2023/07/06 05:15:14;;;;;;;28.23;25.25;;;27.90;99.90;;;;;;4841848;29;20049;-75
2023/07/06 05:17:41;;;;;;;29.30;26.50;;;28.20;99.90;;;;;;4821895;29;20123;-76
2023/07/06 05:20:13;;;;;;;28.48;25.88;;;28.00;99.90;;;;;;4822331;29;20084;-78
2023/07/06 05:22:42;;;;;;;29.30;26.30;;;27.50;99.90;;;;;;4822982;29;20081;-78
2023/07/06 05:25:11;;;;;;;29.77;26.85;;;27.30;99.90;;;;;;4807595;29;20077;-76
2023/07/06 05:27:39;;;;;;;31.02;27.88;;;26.90;99.90;;;;;;4821772;29;20053;-76
2023/07/06 05:30:08;;;;;;;31.50;28.38;;;26.60;99.90;;;;;;4840867;29;20438;-76
2023/07/06 05:32:36;;;;;;;31.50;28.50;;;26.20;99.90;;;;;;4845372;29;20046;-75
2023/07/06 05:35:03;;;;;;;31.75;28.35;;;25.80;99.90;;;;;;4843624;29;20050;-74
2023/07/06 05:37:33;;;;;;;32.42;29.30;;;25.40;99.90;;;;;;4844351;29;20056;-76
2023/07/06 05:40:03;;;;;;;34.80;29.67;;;25.30;99.90;;;;;;4844607;29;20052;-74
2023/07/06 05:42:31;;;;;;;36.80;33.05;;;25.60;99.90;;;;;;4844942;29;20065;-76
2023/07/06 05:44:58;;;;;;;39.22;35.10;;;25.20;99.90;;;;;;4845037;29;20077;-75
2023/07/06 05:47:27;;;;;;;41.75;37.38;;;25.10;99.90;;;;;;4844324;29;20050;-78
2023/07/06 05:49:55;;;;;;;44.25;39.53;;;24.90;99.90;;;;;;4845409;29;20183;-74
2023/07/06 05:52:22;;;;;;;44.42;39.78;;;24.80;99.90;;;;;;4845051;29;20046;-76
2023/07/06 05:54:50;;;;;;;45.08;39.08;;;25.20;99.90;;;;;;4845162;29;20050;-76
2023/07/06 05:57:19;;;;;;;42.33;37.33;;;26.10;99.90;;;;;;4827365;29;20125;-77
2023/07/06 05:59:48;;;;;;;51.45;45.80;;;27.20;99.90;;;;;;4843326;29;20432;-76
2023/07/06 06:02:18;;;;;;;57.30;46.42;;;28.30;99.90;;;;;;4816347;29;20053;-76
2023/07/06 06:04:47;;;;;;;65.53;52.00;;;29.30;99.90;;;;;;4826239;29;20039;-75
2023/07/06 06:07:18;;;;;;;62.20;51.30;;;29.60;99.90;;;;;;4825771;29;20129;-75
2023/07/06 06:09:45;;;;;;;64.90;51.40;;;30.30;99.90;;;;;;4824479;29;20118;-76
2023/07/06 06:12:18;;;;;;;61.15;52.03;;;30.70;99.90;;;;;;4807543;29;20080;-76
2023/07/06 06:14:47;;;;;;;63.70;52.97;;;30.80;99.90;;;;;;4824091;29;20079;-76
2023/07/06 06:17:15;;;;;;;61.28;53.03;;;30.80;99.90;;;;;;4825133;29;20069;-76
2023/07/06 06:19:45;;;;;;;63.45;52.90;;;30.50;99.90;;;;;;4810047;29;20488;-75
2023/07/06 06:22:15;;;;;;;55.67;49.28;;;30.70;99.90;;;;;;4825659;29;20085;-77
2023/07/06 06:24:44;;;;;;;59.28;50.80;;;31.20;99.90;;;;;;4808103;29;20054;-76
2023/07/06 06:27:14;;;;;;;63.83;52.33;;;31.10;99.90;;;;;;4807897;29;20389;-76
2023/07/06 06:29:42;;;;;;;60.70;53.17;;;31.30;99.90;;;;;;4836920;29;20054;-75
2023/07/06 06:32:10;;;;;;;65.78;54.67;;;31.30;99.90;;;;;;4826447;29;20077;-77
2023/07/06 06:34:39;;;;;;;62.78;53.08;;;31.30;99.90;;;;;;4843485;29;20046;-76
2023/07/06 06:37:09;;;;;;;66.90;55.30;;;31.10;99.90;;;;;;4842946;29;20050;-76
2023/07/06 06:39:38;;;;;;;62.45;53.80;;;30.90;99.90;;;;;;4841845;29;20085;-75
2023/07/06 06:42:07;;;;;;;66.93;56.25;;;30.60;99.90;;;;;;4825266;29;20212;-76
2023/07/06 06:44:35;;;;;;;64.85;51.75;;;30.20;99.90;;;;;;4829394;29;20038;-76
2023/07/06 06:47:04;;;;;;;60.85;51.33;;;30.20;99.90;;;;;;4825113;29;20503;-77
2023/07/06 06:49:33;;;;;;;59.97;49.90;;;29.90;99.90;;;;;;4823236;29;20066;-75
2023/07/06 06:52:02;;;;;;;60.83;49.47;;;29.90;99.90;;;;;;4825249;29;20062;-74
2023/07/06 06:54:30;;;;;;;57.80;48.97;;;30.10;99.90;;;;;;4837330;29;20074;-76
2023/07/06 06:56:59;;;;;;;53.38;44.22;;;30.30;99.90;;;;;;4829468;29;20149;-77
2023/07/06 06:59:27;;;;;;;49.70;43.05;;;30.20;99.90;;;;;;4827165;29;20539;-76
2023/07/06 07:01:54;;;;;;;51.80;43.05;;;29.80;99.90;;;;;;4825635;29;20038;-74
2023/07/06 07:04:22;;;;;;;47.58;41.58;;;30.00;99.90;;;;;;4839711;29;20046;-76
2023/07/06 07:06:49;;;;;;;49.15;41.65;;;30.10;99.90;;;;;;4838238;29;20089;-74
2023/07/06 07:09:17;;;;;;;48.00;42.67;;;30.50;99.90;;;;;;4826800;29;20405;-76
2023/07/06 07:11:45;;;;;;;47.13;40.78;;;30.70;99.90;;;;;;4827236;29;20056;-79
2023/07/06 07:14:15;;;;;;;47.63;41.55;;;30.70;99.90;;;;;;4843944;29;20130;-75
2023/07/06 07:16:42;;;;;;;47.42;38.80;;;30.40;99.90;;;;;;4844604;29;20038;-76
2023/07/06 07:19:10;;;;;;;47.00;38.13;;;30.30;99.90;;;;;;4839653;29;20047;-74
2023/07/06 07:21:37;;;;;;;43.63;37.17;;;30.40;99.90;;;;;;4817967;29;20057;-76
2023/07/06 07:24:05;;;;;;;42.08;36.97;;;30.10;99.90;;;;;;4838678;29;20042;-75
2023/07/06 07:26:33;;;;;;;41.10;36.13;;;30.20;99.90;;;;;;4838808;29;20043;-75
2023/07/06 07:29:02;;;;;;;40.30;35.53;;;30.00;99.90;;;;;;4833424;29;20050;-74
2023/07/06 07:31:31;;;;;;;41.20;35.05;;;30.20;99.90;;;;;;4844481;29;20472;-74
2023/07/06 07:33:59;;;;;;;40.80;33.58;;;30.70;99.90;;;;;;4849324;29;20068;-75
2023/07/06 07:36:27;;;;;;;36.88;31.40;;;31.30;99.90;;;;;;4843587;29;20046;-76
2023/07/06 07:38:56;;;;;;;37.63;33.45;;;31.60;99.90;;;;;;4843675;29;20061;-76
2023/07/06 07:41:24;;;;;;;36.38;32.47;;;31.80;99.90;;;;;;4841586;29;20506;-76
2023/07/06 07:43:52;;;;;;;34.80;29.50;;;31.90;99.90;;;;;;4834386;29;20115;-77
2023/07/06 07:46:20;;;;;;;30.77;27.63;;;31.00;99.90;;;;;;4825521;29;20131;-76
2023/07/06 07:48:50;;;;;;;29.20;26.20;;;30.90;99.90;;;;;;4825674;29;20103;-76
2023/07/06 07:51:20;;;;;;;31.90;28.08;;;30.90;99.90;;;;;;4824249;29;20500;-75
2023/07/06 07:53:48;;;;;;;24.30;21.73;;;31.00;99.90;;;;;;4825010;29;20577;-75
2023/07/06 07:56:16;;;;;;;27.08;24.38;;;30.40;99.90;;;;;;4825394;29;20079;-78
2023/07/06 07:58:47;;;;;;;23.92;20.88;;;30.50;99.90;;;;;;4826438;29;20138;-78
2023/07/06 08:01:17;;;;;;;25.50;20.27;;;30.20;99.90;;;;;;4809802;29;20145;-76
2023/07/06 08:03:44;;;;;;;33.22;22.80;;;29.80;99.90;;;;;;4827047;29;20039;-76
2023/07/06 08:06:16;;;;;;;20.17;17.95;;;29.80;99.90;;;;;;4824283;29;20053;-75
2023/07/06 08:08:44;;;;;;;24.88;19.63;;;29.80;99.90;;;;;;4806564;29;20042;-78
2023/07/06 08:11:14;;;;;;;25.25;22.05;;;30.10;99.90;;;;;;4822351;29;20047;-77
2023/07/06 08:13:41;;;;;;;20.40;18.20;;;30.50;99.90;;;;;;4824263;29;20500;-77
2023/07/06 08:16:09;;;;;;;20.85;18.55;;;30.80;99.90;;;;;;4804723;29;20107;-76
2023/07/06 08:18:36;;;;;;;19.60;17.30;;;30.30;99.90;;;;;;4821559;29;20112;-76
2023/07/06 08:21:04;;;;;;;21.42;19.33;;;29.70;99.90;;;;;;4820689;29;20046;-75
2023/07/06 08:23:32;;;;;;;20.05;17.73;;;29.70;99.90;;;;;;4805199;29;20565;-77
2023/07/06 08:26:03;;;;;;;22.38;18.67;;;30.00;99.90;;;;;;4821196;29;20042;-78
2023/07/06 08:28:32;;;;;;;21.63;17.27;;;30.20;99.90;;;;;;4808781;29;20129;-78
2023/07/06 08:31:01;;;;;;;21.02;18.27;;;30.20;99.90;;;;;;4838951;29;20153;-76
2023/07/06 08:33:30;;;;;;;21.85;19.55;;;29.80;99.90;;;;;;4823496;29;20053;-78
2023/07/06 08:35:58;;;;;;;19.45;17.52;;;29.30;99.90;;;;;;4840551;29;20069;-74
2023/07/06 08:38:25;;;;;;;20.25;18.15;;;29.70;99.90;;;;;;4823920;29;20456;-74
2023/07/06 08:40:54;;;;;;;21.38;19.13;;;30.10;99.90;;;;;;4839423;29;20045;-76
2023/07/06 08:43:26;;;;;;;20.67;18.50;;;30.30;99.90;;;;;;4839806;29;20456;-76
2023/07/06 08:46:00;;;;;;;20.20;18.20;;;30.50;99.90;;;;;;4840536;29;20134;-77
2023/07/06 08:48:30;;;;;;;21.88;19.33;;;31.10;99.90;;;;;;4840893;29;20560;-75
2023/07/06 08:51:01;;;;;;;20.20;16.80;;;31.70;99.90;;;;;;4838375;29;20050;-76
2023/07/06 08:53:33;;;;;;;21.45;18.13;;;31.50;99.90;;;;;;4822310;29;20069;-76
2023/07/06 08:56:08;;;;;;;23.67;17.55;;;30.80;99.90;;;;;;4806121;29;20526;-76
2023/07/06 08:58:41;;;;;;;21.67;18.52;;;30.20;99.90;;;;;;4823142;29;20047;-77
2023/07/06 09:01:12;;;;;;;24.95;22.35;;;29.80;99.90;;;;;;4822236;29;20392;-75
2023/07/06 09:03:44;;;;;;;18.45;16.55;;;30.10;99.90;;;;;;4805214;29;20047;-77
2023/07/06 09:06:14;;;;;;;19.40;17.40;;;30.40;99.90;;;;;;4824684;29;20106;-77
2023/07/06 09:08:45;;;;;;;19.75;17.38;;;30.90;99.90;;;;;;4834046;29;20050;-77
2023/07/06 09:11:15;;;;;;;20.60;18.55;;;31.30;99.90;;;;;;4830398;29;20119;-78
2023/07/06 09:13:47;;;;;;;20.88;17.95;;;31.80;99.90;;;;;;4836646;29;20046;-76
2023/07/06 09:16:18;;;;;;;17.60;15.73;;;32.00;99.90;;;;;;4822602;29;20455;-77
2023/07/06 09:18:45;;;;;;;18.30;16.13;;;31.80;99.90;;;;;;4825681;29;20508;-76
2023/07/06 09:21:13;;;;;;;20.90;16.45;;;31.90;99.90;;;;;;4826415;29;20373;-78
2023/07/06 09:23:45;;;;;;;21.65;17.85;;;32.00;99.90;;;;;;4826939;29;20053;-77
2023/07/06 09:26:23;;;;;;;20.00;17.10;;;32.20;99.90;;;;;;4826128;29;20050;-77
2023/07/06 09:28:52;;;;;;;23.95;19.65;;;31.80;99.90;;;;;;4830658;29;20415;-75
2023/07/06 09:31:22;;;;;;;24.73;19.13;;;31.60;99.90;;;;;;4844846;29;20058;-77
2023/07/06 09:33:53;;;;;;;23.08;20.75;;;31.70;99.90;;;;;;4852015;29;20053;-73
2023/07/06 09:36:25;;;;;;;19.88;17.83;;;32.00;99.90;;;;;;4859423;29;20050;-76
2023/07/06 09:38:53;;;;;;;26.23;20.60;;;32.00;99.90;;;;;;4853553;29;20050;-74
2023/07/06 09:41:23;;;;;;;22.45;19.42;;;32.00;99.90;;;;;;4846417;29;20072;-76
2023/07/06 09:43:57;;;;;;;20.42;17.83;;;31.80;99.90;;;;;;4853564;29;20325;-74
2023/07/06 09:46:27;;;;;;;21.55;19.35;;;31.70;99.90;;;;;;4849005;29;20053;-77
2023/07/06 09:48:55;;;;;;;23.85;19.85;;;31.80;99.90;;;;;;4828401;29;20046;-77
2023/07/06 09:51:29;;;;;;;24.45;19.00;;;32.10;99.90;;;;;;4823758;29;20095;-74
2023/07/06 09:54:00;;;;;;;21.95;19.75;;;32.40;99.90;;;;;;4826971;29;20049;-76
2023/07/06 09:56:29;;;;;;;26.00;23.30;;;31.90;99.90;;;;;;4828360;29;20053;-78
2023/07/06 09:58:57;;;;;;;26.33;20.73;;;31.90;99.90;;;;;;4823333;29;20057;-76
2023/07/06 10:01:35;;;;;;;21.42;19.20;;;32.00;99.90;;;;;;4824057;29;20058;-73
2023/07/06 10:04:22;;;;;;;22.42;20.23;;;32.00;99.90;;;;;;4824019;29;20054;-76
2023/07/06 10:07:02;;;;;;;22.02;19.73;;;31.80;99.90;;;;;;4823865;29;20441;-79
2023/07/06 10:09:33;;;;;;;22.65;20.55;;;31.60;99.90;;;;;;4823012;29;20046;-76
2023/07/06 10:12:11;;;;;;;24.63;21.98;;;31.30;99.90;;;;;;4823357;29;20070;-75
2023/07/06 10:14:44;;;;;;;25.02;22.58;;;31.40;99.90;;;;;;4823714;29;20106;-77
2023/07/06 10:17:24;;;;;;;27.73;22.77;;;31.40;99.90;;;;;;4823509;29;20093;-75
2023/07/06 10:19:58;;;;;;;26.05;23.35;;;31.50;99.90;;;;;;4825437;29;20094;-78
2023/07/06 10:22:44;;;;;;;25.08;21.73;;;31.60;99.90;;;;;;4827274;29;20091;-79
2023/07/06 10:25:20;;;;;;;19.85;17.73;;;32.10;99.90;;;;;;4826119;29;20572;-75
2023/07/06 10:27:55;;;;;;;25.15;18.48;;;32.20;99.90;;;;;;4826979;29;20063;-75
2023/07/06 10:30:27;;;;;;;18.92;16.95;;;31.90;99.90;;;;;;4843168;29;20057;-78
2023/07/06 10:32:57;;;;;;;20.63;18.60;;;31.40;99.90;;;;;;4843585;29;20057;-77
2023/07/06 10:35:28;;;;;;;21.80;18.83;;;31.10;99.90;;;;;;4841332;29;20515;-74
2023/07/06 10:37:57;;;;;;;20.88;17.95;;;31.00;99.90;;;;;;4841817;29;20392;-77
2023/07/06 10:40:26;;;;;;;22.35;17.70;;;31.10;99.90;;;;;;4842798;29;20107;-77
2023/07/06 10:43:21;;;;;;;19.63;16.63;;;31.20;99.90;;;;;;4841171;29;20042;-76
2023/07/06 10:45:51;;;;;;;17.92;16.13;;;31.40;99.90;;;;;;4823485;29;20050;-76
2023/07/06 10:48:30;;;;;;;21.20;19.02;;;31.40;99.90;;;;;;4822829;29;20050;-78
2023/07/06 10:51:19;;;;;;;22.25;19.40;;;30.90;99.90;;;;;;4822688;29;20534;-78
2023/07/06 10:53:53;;;;;;;22.08;19.42;;;30.70;99.90;;;;;;4822967;29;20113;-79
2023/07/06 10:56:23;;;;;;;22.60;18.80;;;30.80;99.90;;;;;;4822937;29;20057;-77
2023/07/06 10:58:57;;;;;;;27.17;24.38;;;31.00;99.90;;;;;;4807056;29;20050;-76
2023/07/06 11:01:30;;;;;;;24.33;21.83;;;31.00;99.90;;;;;;4823877;29;20095;-77
2023/07/06 11:04:00;;;;;;;21.73;19.40;;;31.30;99.90;;;;;;4823878;29;20078;-76
2023/07/06 11:06:52;;;;;;;19.90;17.80;;;31.50;99.90;;;;;;4822720;29;20133;-75
2023/07/06 11:09:21;;;;;;;22.55;19.38;;;31.20;99.90;;;;;;4813973;29;20066;-76
2023/07/06 11:12:19;;;;;;;20.95;15.82;;;31.20;99.90;;;;;;4807386;29;20503;-74
2023/07/06 11:14:50;;;;;;;16.42;14.68;;;31.20;99.90;;;;;;4823435;29;20129;-76
2023/07/06 11:17:36;;;;;;;18.33;14.90;;;31.30;99.90;;;;;;4823010;29;20466;-76
2023/07/06 11:20:09;;;;;;;20.83;17.17;;;31.00;99.90;;;;;;4821838;29;20042;-76
2023/07/06 11:22:38;;;;;;;18.08;16.00;;;31.30;99.90;;;;;;4824630;29;20487;-75
2023/07/06 11:25:11;;;;;;;18.02;16.13;;;31.60;99.90;;;;;;4824999;29;20447;-74
2023/07/06 11:27:44;;;;;;;18.05;16.27;;;31.60;99.90;;;;;;4823158;29;20047;-75
2023/07/06 11:30:15;;;;;;;18.85;16.85;;;31.80;99.90;;;;;;4822072;29;20086;-77
2023/07/06 11:33:00;;;;;;;19.88;17.98;;;32.10;99.90;;;;;;4842884;29;20082;-75
2023/07/06 11:35:40;;;;;;;28.60;21.03;;;32.20;99.90;;;;;;4841261;29;20070;-77
2023/07/06 11:38:46;;;;;;;21.42;18.85;;;32.00;99.90;;;;;;4841787;29;20285;-78
2023/07/06 11:41:24;;;;;;;19.67;17.70;;;32.10;99.90;;;;;;4827355;29;20062;-78
2023/07/06 11:44:28;;;;;;;22.77;20.08;;;32.00;99.90;;;;;;4822228;29;20087;-76
2023/07/06 11:47:18;;;;;;;19.85;17.77;;;31.80;99.90;;;;;;4789497;29;20065;-76
2023/07/06 11:49:48;;;;;;;23.67;21.48;;;31.90;99.90;;;;;;4822966;29;20079;-76
2023/07/06 11:52:19;;;;;;;24.02;21.42;;;32.00;99.90;;;;;;4823720;29;20084;-75
2023/07/06 11:54:54;;;;;;;26.80;21.08;;;32.20;99.90;;;;;;4822605;29;20095;-76
2023/07/06 11:57:41;;;;;;;24.17;20.52;;;32.40;99.90;;;;;;4823226;29;20116;-78
2023/07/06 12:00:18;;;;;;;24.17;21.98;;;32.40;99.90;;;;;;4822579;29;20074;-76
2023/07/06 12:03:00;;;;;;;23.10;20.95;;;32.10;99.90;;;;;;4822639;29;20067;-77
2023/07/06 12:05:31;;;;;;;25.40;22.80;;;31.90;99.90;;;;;;4822460;29;20050;-76
2023/07/06 12:08:03;;;;;;;25.65;23.20;;;31.60;99.90;;;;;;4823213;29;20122;-74
2023/07/06 12:10:35;;;;;;;25.77;23.38;;;31.40;99.90;;;;;;4829257;29;20209;-74
2023/07/06 12:13:05;;;;;;;27.42;24.73;;;31.00;99.90;;;;;;4828475;29;20496;-77
2023/07/06 12:15:32;;;;;;;30.60;27.05;;;30.40;99.90;;;;;;4827547;29;20268;-74
2023/07/06 12:18:01;;;;;;;29.85;27.17;;;30.20;99.90;;;;;;4823460;29;20085;-75
2023/07/06 12:20:31;;;;;;;27.27;24.85;;;30.20;99.90;;;;;;4805891;29;20047;-77
2023/07/06 12:23:01;;;;;;;26.85;24.40;;;30.20;99.90;;;;;;4806086;29;20057;-75
2023/07/06 12:25:29;;;;;;;26.45;24.05;;;30.10;99.90;;;;;;4830766;29;20046;-77
2023/07/06 12:28:00;;;;;;;22.00;19.73;;;30.10;99.90;;;;;;4829056;29;20042;-77
2023/07/06 12:30:33;;;;;;;23.23;20.88;;;29.80;99.90;;;;;;4852728;29;20054;-75
2023/07/06 12:33:05;;;;;;;21.10;18.70;;;29.70;99.90;;;;;;4853232;29;20046;-74
2023/07/06 12:35:34;;;;;;;22.08;19.98;;;29.60;99.90;;;;;;4832908;29;20121;-78
2023/07/06 12:38:06;;;;;;;21.65;19.27;;;29.70;99.90;;;;;;4842565;29;20049;-76
2023/07/06 12:40:34;;;;;;;20.80;18.88;;;29.60;99.90;;;;;;4844217;29;20069;-77
2023/07/06 12:43:04;;;;;;;22.35;20.20;;;29.60;99.90;;;;;;4842291;29;20060;-75
2023/07/06 12:45:32;;;;;;;22.52;20.17;;;29.60;99.90;;;;;;4827283;29;20043;-75
2023/07/06 12:48:04;;;;;;;24.27;21.88;;;29.70;99.90;;;;;;4821395;29;20066;-77